Terminal Aerodrome Forecast
Issued by NWS Shreveport, LA

Home | Current Version | Previous Version | Text Only | Print | Product List | Glossary On
Versions: 1 2 3 4 5 6 7 8 9 10 11 12 13 14 15 16 17 18
872
FTUS44 KSHV 012355
TAFGGG
TAF
KGGG 012355Z 0200/0224 01007KT P6SM SCT060
     FM020300 VRB04KT P6SM BKN050
     FM020900 VRB04KT P6SM VCTS BKN025CB
     FM021400 35007KT P6SM BKN015
     FM021800 34007KT P6SM BKN020=

USA.gov is the U.S. government's official web portal to all federal, state and local government web resources and services.